Time;durP1;ratioP1;P1;durP2;ratioP2;P2;SDS_P1;SDS_P2;PMS_P1;PMS_P2;Temp;Humidity;BMP_temperature;BMP_pressure;BME280_temperature;BME280_humidity;BME280_pressure;Samples;Min_cycle;Max_cycle;Signal;HPM_P1;HPM_P2
2022/12/24 00:00:21;;;;;;;0.70;0.70;;;;;;;-4.51;90.39;99807.84;5064846;28;20377;-69
2022/12/24 00:02:46;;;;;;;0.65;0.65;;;;;;;-4.37;90.39;99820.22;5064628;28;20021;-70
2022/12/24 00:05:12;;;;;;;0.70;0.70;;;;;;;-4.28;90.43;99840.03;5064958;28;20028;-69
2022/12/24 00:07:37;;;;;;;0.70;0.70;;;;;;;-4.27;90.62;99842.63;5064462;28;20636;-70
2022/12/24 00:10:04;;;;;;;0.70;0.70;;;;;;;-4.26;90.61;99844.34;5064810;28;20461;-70
2022/12/24 00:12:30;;;;;;;0.70;0.70;;;;;;;-4.24;90.61;99850.38;5064558;28;20043;-70
2022/12/24 00:14:55;;;;;;;0.75;0.75;;;;;;;-4.20;90.38;99853.88;5064705;28;20056;-71
2022/12/24 00:17:21;;;;;;;0.70;0.70;;;;;;;-4.20;90.49;99856.41;5063153;28;20025;-70
2022/12/24 00:19:46;;;;;;;0.70;0.70;;;;;;;-4.20;90.32;99853.88;5064505;28;20078;-70
2022/12/24 00:22:12;;;;;;;0.70;0.70;;;;;;;-4.19;90.28;99859.81;5064427;28;20024;-70
2022/12/24 00:24:37;;;;;;;0.63;0.63;;;;;;;-4.19;90.16;99862.38;5064536;28;20115;-69
2022/12/24 00:27:04;;;;;;;0.60;0.60;;;;;;;-4.21;89.83;99852.16;5064295;28;20025;-69
2022/12/24 00:29:30;;;;;;;0.60;0.60;;;;;;;-4.29;89.96;99866.16;5064598;28;20536;-69
2022/12/24 00:31:55;;;;;;;0.70;0.70;;;;;;;-4.39;90.01;99857.28;5064421;28;20079;-69
2022/12/24 00:34:22;;;;;;;0.80;0.80;;;;;;;-4.38;90.05;99869.19;5068339;28;20064;-70
2022/12/24 00:36:48;;;;;;;0.70;0.70;;;;;;;-4.41;90.01;99879.19;5067922;28;20079;-69
2022/12/24 00:39:13;;;;;;;0.80;0.80;;;;;;;-4.46;89.96;99881.53;5066861;28;20025;-70
2022/12/24 00:41:38;;;;;;;0.70;0.70;;;;;;;-4.49;89.83;99877.16;5067985;28;20067;-70
2022/12/24 00:44:06;;;;;;;0.60;0.60;;;;;;;-4.52;89.93;99881.25;5068267;28;20025;-69
2022/12/24 00:46:33;;;;;;;0.70;0.70;;;;;;;-4.55;89.96;99881.97;5067747;28;20036;-69
2022/12/24 00:48:59;;;;;;;0.65;0.65;;;;;;;-4.61;89.99;99879.16;5067770;28;20053;-70
2022/12/24 00:51:25;;;;;;;0.70;0.70;;;;;;;-4.62;90.18;99878.28;5067663;28;20036;-69
2022/12/24 00:53:51;;;;;;;0.60;0.60;;;;;;;-4.59;90.16;99887.69;5066643;28;20031;-70
2022/12/24 00:56:18;;;;;;;0.68;0.68;;;;;;;-4.60;90.21;99878.38;5066359;28;20021;-69
2022/12/24 00:58:43;;;;;;;0.70;0.70;;;;;;;-4.59;90.37;99872.50;5067588;28;20408;-69
2022/12/24 01:01:09;;;;;;;0.70;0.70;;;;;;;-4.61;90.27;99869.03;5067708;28;20084;-69
2022/12/24 01:03:34;;;;;;;0.68;0.68;;;;;;;-4.58;90.56;99875.91;5067728;28;20035;-70
2022/12/24 01:06:04;;;;;;;0.70;0.70;;;;;;;-4.59;90.67;99872.50;5067336;28;20029;-70
2022/12/24 01:08:30;;;;;;;0.60;0.60;;;;;;;-4.59;90.75;99864.91;5067520;28;20051;-69
2022/12/24 01:10:56;;;;;;;0.60;0.60;;;;;;;-4.59;90.83;99872.50;5067553;28;20029;-70
2022/12/24 01:13:22;;;;;;;0.50;0.50;;;;;;;-4.62;90.73;99864.78;5067504;28;20025;-70
2022/12/24 01:15:48;;;;;;;0.70;0.70;;;;;;;-4.61;90.67;99869.91;5066456;28;20033;-70
2022/12/24 01:18:13;;;;;;;0.63;0.63;;;;;;;-4.64;90.71;99869.78;5067501;28;20048;-70
2022/12/24 01:20:39;;;;;;;0.60;0.60;;;;;;;-4.68;90.52;99865.34;5067547;28;20020;-69
2022/12/24 01:23:04;;;;;;;0.70;0.70;;;;;;;-4.72;90.41;99868.56;5067312;28;20150;-68
2022/12/24 01:25:29;;;;;;;0.63;0.63;;;;;;;-4.92;90.12;99847.41;5067131;28;20017;-69
2022/12/24 01:27:55;;;;;;;0.60;0.60;;;;;;;-4.83;90.12;99874.78;5067144;28;20429;-70
2022/12/24 01:30:20;;;;;;;0.70;0.70;;;;;;;-4.89;90.23;99883.00;5067332;28;20032;-69
2022/12/24 01:32:46;;;;;;;0.60;0.60;;;;;;;-4.95;90.06;99877.66;5067074;28;20021;-69
2022/12/24 01:35:11;;;;;;;0.70;0.70;;;;;;;-4.97;90.01;99880.97;5065825;28;20108;-69
2022/12/24 01:37:37;;;;;;;0.70;0.70;;;;;;;-5.03;89.81;99883.22;5066864;28;20053;-69
2022/12/24 01:45:36;;;;;;;0.70;0.70;;;;;;;-5.02;90.07;99891.69;5066176;28;20043;-69
2022/12/24 01:48:02;;;;;;;0.70;0.70;;;;;;;-5.12;89.87;99882.78;5066572;28;20041;-68
2022/12/24 01:50:27;;;;;;;0.70;0.70;;;;;;;-5.04;89.88;99896.69;5066689;28;20035;-70
2022/12/24 01:52:53;;;;;;;0.70;0.70;;;;;;;-5.05;89.73;99892.41;5066684;28;20021;-69
2022/12/24 01:55:19;;;;;;;0.60;0.60;;;;;;;-5.04;89.92;99883.13;5066701;28;20036;-69
2022/12/24 01:57:57;;;;;;;0.70;0.70;;;;;;;-5.08;89.73;99879.63;5066439;28;20025;-68
2022/12/24 02:00:22;;;;;;;0.68;0.68;;;;;;;-5.11;89.81;99885.38;5066673;28;20021;-69
2022/12/24 02:02:51;;;;;;;0.70;0.70;;;;;;;-5.15;89.75;99875.06;5066525;28;20047;-69
2022/12/24 02:05:27;;;;;;;0.70;0.70;;;;;;;-5.07;89.89;99881.34;5066541;28;20074;-68
2022/12/24 02:07:53;;;;;;;0.70;0.70;;;;;;;-5.04;89.86;99883.13;5066270;28;20032;-68
2022/12/24 02:10:18;;;;;;;0.60;0.60;;;;;;;-4.89;90.06;99885.53;5066292;28;20028;-69
2022/12/24 02:12:46;;;;;;;0.70;0.70;;;;;;;-4.91;90.15;99876.97;5064967;28;20024;-70
2022/12/24 02:15:15;;;;;;;0.70;0.70;;;;;;;-4.80;90.22;99885.94;5066468;28;20027;-69
2022/12/24 02:18:07;;;;;;;0.70;0.70;;;;;;;-4.78;90.29;99894.47;5064856;28;20043;-69
2022/12/24 02:21:04;;;;;;;0.85;0.85;;;;;;;-4.81;90.25;99886.75;5055016;28;20040;-70
2022/12/24 02:23:50;;;;;;;0.70;0.70;;;;;;;-4.76;90.44;99897.94;5065227;28;20088;-69
2022/12/24 02:26:18;;;;;;;0.70;0.70;;;;;;;-4.74;90.49;99906.47;5066000;28;20046;-70
2022/12/24 02:29:19;;;;;;;0.70;0.70;;;;;;;-4.68;90.40;99912.63;5065994;28;20028;-69
2022/12/24 02:32:17;;;;;;;16.45;5.65;;;;;;;-4.66;90.24;99921.13;5066074;28;20103;-69
2022/12/24 02:34:42;;;;;;;0.60;0.60;;;;;;;-4.67;90.14;99924.47;5061708;28;20043;-69
2022/12/24 02:37:24;;;;;;;0.68;0.68;;;;;;;-4.68;90.32;99922.75;5065772;28;20025;-69
2022/12/24 02:39:57;;;;;;;0.80;0.80;;;;;;;-4.62;90.28;99920.50;5065838;28;20036;-69
2022/12/24 02:42:29;;;;;;;0.60;0.60;;;;;;;-4.58;90.03;99919.84;5065753;28;20029;-68
2022/12/24 02:45:01;;;;;;;0.90;0.90;;;;;;;-4.60;90.17;99931.59;5065937;28;20486;-69
2022/12/24 02:47:28;;;;;;;0.63;0.63;;;;;;;-4.60;90.10;99923.97;5065553;28;20067;-68
2022/12/24 02:49:54;;;;;;;1.02;1.02;;;;;;;-4.59;90.15;99930.78;5065756;28;20381;-69
2022/12/24 02:52:40;;;;;;;0.60;0.60;;;;;;;-4.58;89.95;99932.50;5065095;28;20017;-69
2022/12/24 02:55:15;;;;;;;0.70;0.70;;;;;;;-4.62;89.92;99949.22;5065404;28;20032;-70
2022/12/24 02:58:07;;;;;;;0.70;0.70;;;;;;;-4.64;90.00;99944.88;5065478;28;20025;-69
2022/12/24 03:00:50;;;;;;;0.70;0.70;;;;;;;-4.64;89.64;99937.28;5043143;28;20025;-69
2022/12/24 03:03:35;;;;;;;0.70;0.70;;;;;;;-4.64;89.59;99932.22;5026417;28;20433;-68
2022/12/24 03:06:22;;;;;;;0.70;0.70;;;;;;;-4.71;89.44;99932.75;5042935;28;20029;-68
2022/12/24 03:08:58;;;;;;;0.70;0.70;;;;;;;-4.77;89.38;99940.91;5026470;28;20040;-69
2022/12/24 03:11:24;;;;;;;0.70;0.70;;;;;;;-4.78;89.44;99939.19;5043005;28;20069;-69
2022/12/24 03:13:53;;;;;;;0.70;0.70;;;;;;;-4.88;89.62;99937.91;5042826;28;20056;-69
2022/12/24 03:16:23;;;;;;;0.70;0.70;;;;;;;-4.89;89.65;99946.31;5042879;28;20037;-68
2022/12/24 03:18:51;;;;;;;0.70;0.70;;;;;;;-4.94;89.86;99947.75;5042791;28;20137;-69
2022/12/24 03:21:33;;;;;;;0.70;0.70;;;;;;;-4.98;89.84;99949.25;5042572;28;20025;-68
2022/12/24 03:23:59;;;;;;;0.77;0.77;;;;;;;-4.99;89.85;99956.00;5042748;28;20041;-69
2022/12/24 03:26:27;;;;;;;0.60;0.60;;;;;;;-5.00;89.79;99954.25;5026130;28;20112;-68
2022/12/24 03:28:53;;;;;;;0.80;0.80;;;;;;;-4.97;89.81;99961.97;5042752;28;20029;-69
2022/12/24 03:31:19;;;;;;;0.65;0.65;;;;;;;-4.96;89.42;99955.25;5042647;28;20048;-68
2022/12/24 03:33:45;;;;;;;0.60;0.60;;;;;;;-4.91;89.42;99958.88;5042710;28;20049;-69
2022/12/24 03:36:11;;;;;;;2.90;2.80;;;;;;;-4.95;89.50;99966.28;5042384;28;20033;-69
2022/12/24 03:38:37;;;;;;;0.70;0.70;;;;;;;-4.95;89.74;99967.13;5063662;28;20036;-69
2022/12/24 03:41:03;;;;;;;5.15;4.70;;;;;;;-4.95;89.83;99976.41;5064996;28;20025;-70
2022/12/24 03:43:29;;;;;;;0.70;0.70;;;;;;;-4.90;89.84;99987.59;5064821;28;20029;-70
2022/12/24 03:45:54;;;;;;;0.65;0.65;;;;;;;-4.88;89.82;99983.47;5064861;28;20031;-69
2022/12/24 03:48:20;;;;;;;0.70;0.70;;;;;;;-4.86;89.81;99981.91;5064580;28;20114;-70
2022/12/24 03:50:45;;;;;;;0.60;0.60;;;;;;;-4.79;89.70;99970.41;5064910;28;20025;-69
2022/12/24 03:53:10;;;;;;;0.70;0.70;;;;;;;-4.78;89.38;99977.19;5063435;28;20025;-70
2022/12/24 03:55:37;;;;;;;0.60;0.60;;;;;;;-4.73;88.84;99980.81;5064933;28;20020;-69
2022/12/24 03:58:02;;;;;;;0.60;0.60;;;;;;;-4.80;88.34;99982.19;5064854;28;20025;-69
2022/12/24 04:00:28;;;;;;;0.70;0.70;;;;;;;-4.93;88.34;99992.50;5064803;28;20033;-69
2022/12/24 04:02:53;;;;;;;0.70;0.70;;;;;;;-5.01;87.84;99982.91;5064642;28;20029;-69
2022/12/24 04:05:19;;;;;;;0.60;0.60;;;;;;;-5.14;88.10;99985.63;5064944;28;20504;-70
2022/12/24 04:07:45;;;;;;;0.70;0.70;;;;;;;-5.23;88.03;99984.41;5066057;28;20033;-69
2022/12/24 04:10:12;;;;;;;0.70;0.70;;;;;;;-5.25;88.04;99982.56;5068638;28;20092;-70
2022/12/24 04:12:38;;;;;;;0.70;0.70;;;;;;;-5.40;88.54;99977.66;5068649;28;20131;-69
2022/12/24 04:15:04;;;;;;;0.60;0.60;;;;;;;-5.36;88.99;99975.34;5068556;28;20025;-70
2022/12/24 04:17:29;;;;;;;0.70;0.70;;;;;;;-5.39;89.12;99967.59;5068402;28;20028;-70
2022/12/24 04:19:54;;;;;;;0.60;0.60;;;;;;;-5.28;89.18;99978.25;5068630;28;20028;-70
2022/12/24 04:22:20;;;;;;;0.70;0.70;;;;;;;-5.16;89.44;99982.16;5068373;28;20175;-68
2022/12/24 04:24:46;;;;;;;0.60;0.60;;;;;;;-5.06;89.34;99978.41;5068525;28;20052;-69
2022/12/24 04:27:13;;;;;;;0.63;0.63;;;;;;;-5.00;89.25;99983.78;5068453;28;20025;-69
2022/12/24 04:29:38;;;;;;;0.70;0.70;;;;;;;-5.00;89.21;99982.09;5068211;28;20496;-69
2022/12/24 04:32:04;;;;;;;0.60;0.60;;;;;;;-5.00;89.34;99988.84;5068226;28;20024;-70
2022/12/24 04:34:29;;;;;;;0.70;0.70;;;;;;;-5.05;89.49;99983.56;5066826;28;20096;-70
2022/12/24 04:36:55;;;;;;;0.60;0.60;;;;;;;-5.15;89.70;99978.81;5068205;28;20440;-70
2022/12/24 04:39:20;;;;;;;0.60;0.60;;;;;;;-5.13;90.15;99984.84;5068239;28;20481;-69
2022/12/24 04:41:46;;;;;;;0.70;0.70;;;;;;;-5.15;89.75;99994.00;5068047;28;20021;-68
2022/12/24 04:44:11;;;;;;;0.70;0.70;;;;;;;-5.20;89.71;99990.38;5068115;28;20032;-69
2022/12/24 04:46:37;;;;;;;0.60;0.60;;;;;;;-5.25;89.72;99993.56;5067887;28;20021;-69
2022/12/24 04:49:02;;;;;;;0.70;0.70;;;;;;;-5.30;89.59;99986.56;5066395;28;20575;-68
2022/12/24 04:51:28;;;;;;;0.68;0.68;;;;;;;-5.40;89.55;99970.06;5067583;28;20057;-68
2022/12/24 04:53:54;;;;;;;0.73;0.73;;;;;;;-5.38;89.50;99983.63;5067938;28;20086;-69
2022/12/24 04:56:23;;;;;;;0.70;0.70;;;;;;;-5.47;89.18;99984.94;5067672;28;20051;-68
2022/12/24 04:58:48;;;;;;;0.80;0.80;;;;;;;-5.54;89.23;99989.63;5067734;28;20028;-68
2022/12/24 05:01:20;;;;;;;0.60;0.60;;;;;;;-5.55;89.06;99987.84;5067821;28;20031;-68
2022/12/24 05:03:46;;;;;;;;;;;;;;;-5.51;88.98;99995.66;5067997;28;20048;-68
2022/12/24 05:06:14;;;;;;;0.70;0.70;;;;;;;-5.55;89.08;99983.69;5067511;28;19967;-67
2022/12/24 05:08:41;;;;;;;0.70;0.70;;;;;;;-5.51;89.30;99990.63;5067560;28;20028;-69
2022/12/24 05:11:06;;;;;;;0.60;0.60;;;;;;;-5.47;89.30;99986.59;5067413;28;20021;-69
2022/12/24 05:13:32;;;;;;;1.13;1.13;;;;;;;-5.40;89.21;99988.59;5067608;28;20031;-68
2022/12/24 05:15:58;;;;;;;0.70;0.70;;;;;;;-5.36;89.29;99994.69;5067376;28;20021;-68
2022/12/24 05:18:24;;;;;;;0.68;0.68;;;;;;;-5.38;89.30;99997.16;5067269;28;20108;-69
2022/12/24 05:20:49;;;;;;;0.70;0.70;;;;;;;-5.38;89.45;99991.22;5067381;28;20488;-69
2022/12/24 05:26:20;;;;;;;0.70;0.70;;;;;;;-5.29;89.54;99991.69;5067332;28;20035;-68
2022/12/24 05:28:46;;;;;;;2.03;1.92;;;;;;;-5.19;89.60;99990.47;5065845;28;20131;-69
2022/12/24 05:31:12;;;;;;;0.63;0.63;;;;;;;-5.14;89.56;99998.28;5067219;28;20039;-69
2022/12/24 05:33:37;;;;;;;0.70;0.70;;;;;;;-5.12;89.42;99991.63;5067036;28;20025;-69
2022/12/24 05:36:03;;;;;;;0.60;0.60;;;;;;;-5.11;89.37;99995.88;5067250;28;20490;-69
2022/12/24 05:38:28;;;;;;;0.70;0.70;;;;;;;-5.13;89.24;99987.38;5066765;28;20164;-68
2022/12/24 05:40:53;;;;;;;0.70;0.70;;;;;;;-5.20;89.14;99996.31;5065698;28;20028;-69
2022/12/24 05:43:19;;;;;;;0.70;0.70;;;;;;;-5.19;88.86;100002.28;5067032;28;20035;-69
2022/12/24 05:45:44;;;;;;;0.70;0.70;;;;;;;-5.23;88.51;100001.25;5067095;28;20088;-69
2022/12/24 05:48:10;;;;;;;0.60;0.60;;;;;;;-5.25;88.67;100008.75;5066438;28;20049;-69
2022/12/24 05:50:37;;;;;;;0.70;0.70;;;;;;;-5.23;89.08;100008.84;5066745;28;20041;-69
2022/12/24 05:53:03;;;;;;;0.73;0.73;;;;;;;-5.15;89.02;100017.69;5066633;28;20025;-69
2022/12/24 05:55:28;;;;;;;0.70;0.70;;;;;;;-5.07;89.26;100017.16;5066774;28;20029;-69
2022/12/24 05:57:53;;;;;;;0.50;0.50;;;;;;;-5.06;89.16;100021.47;5066699;28;20036;-69
2022/12/24 06:00:19;;;;;;;0.70;0.70;;;;;;;-5.02;89.37;100020.81;5066687;28;20025;-69
2022/12/24 06:02:45;;;;;;;0.60;0.60;;;;;;;-4.99;89.22;100016.75;5066353;28;20025;-69
2022/12/24 06:05:10;;;;;;;0.70;0.70;;;;;;;-4.89;89.19;100024.81;5066472;28;20021;-70
2022/12/24 06:07:35;;;;;;;0.80;0.80;;;;;;;-4.87;89.19;100029.13;5066220;28;20025;-67
2022/12/24 06:10:01;;;;;;;0.70;0.70;;;;;;;-4.94;89.00;100024.59;5066509;28;20025;-68
2022/12/24 06:12:27;;;;;;;0.65;0.65;;;;;;;-5.00;88.52;100037.78;5066261;28;20032;-69
2022/12/24 06:14:53;;;;;;;0.70;0.70;;;;;;;-5.07;88.22;100035.78;5066378;28;20392;-68
2022/12/24 06:17:18;;;;;;;0.65;0.65;;;;;;;-5.15;88.17;100029.47;5066084;28;20049;-70
2022/12/24 06:19:43;;;;;;;0.60;0.60;;;;;;;-5.20;88.20;100030.88;5066318;28;20059;-69
2022/12/24 06:22:09;;;;;;;0.60;0.60;;;;;;;-5.27;87.93;100029.72;5065888;28;20092;-69
2022/12/24 06:24:34;;;;;;;0.60;0.60;;;;;;;-5.32;88.28;100038.75;5066114;28;20073;-72
2022/12/24 06:27:00;;;;;;;0.70;0.70;;;;;;;-5.36;88.43;100032.66;5065975;28;20048;-69
2022/12/24 06:29:25;;;;;;;0.70;0.70;;;;;;;-5.34;88.66;100041.22;5065991;28;20025;-70
2022/12/24 06:31:50;;;;;;;0.60;0.60;;;;;;;-5.31;88.85;100032.88;5065683;28;20085;-70
2022/12/24 06:34:16;;;;;;;0.60;0.60;;;;;;;-5.24;88.75;100035.78;5065949;28;20031;-69
2022/12/24 06:36:41;;;;;;;0.70;0.70;;;;;;;-5.17;88.91;100043.69;5065828;28;20439;-69
2022/12/24 06:39:07;;;;;;;0.70;0.70;;;;;;;-5.14;89.08;100056.50;5065827;28;20036;-70
2022/12/24 06:41:32;;;;;;;0.60;0.60;;;;;;;-5.00;89.28;100064.78;5065973;28;20083;-69
2022/12/24 06:43:58;;;;;;;0.70;0.70;;;;;;;-4.98;88.92;100060.66;5065794;28;20033;-69
2022/12/24 06:46:23;;;;;;;0.70;0.70;;;;;;;-4.90;89.05;100072.03;5065826;28;20025;-68
2022/12/24 06:48:49;;;;;;;0.60;0.60;;;;;;;-4.93;88.95;100069.34;5065336;28;20049;-69
2022/12/24 06:51:18;;;;;;;0.60;0.60;;;;;;;-5.04;88.87;100063.78;5065620;28;20085;-68
2022/12/24 06:53:44;;;;;;;0.70;0.70;;;;;;;-5.07;88.80;100068.69;5065798;28;20055;-70
2022/12/24 06:56:12;;;;;;;0.70;0.70;;;;;;;-5.17;88.73;100076.59;5065624;28;20044;-70
2022/12/24 06:58:39;;;;;;;0.70;0.70;;;;;;;-5.20;88.38;100084.91;5065448;28;20056;-70
2022/12/24 07:01:06;;;;;;;0.70;0.70;;;;;;;-5.29;88.31;100090.41;5065643;28;20092;-69
2022/12/24 07:03:32;;;;;;;0.60;0.60;;;;;;;-5.33;88.39;100091.00;5065486;28;20021;-69
2022/12/24 07:05:58;;;;;;;0.70;0.70;;;;;;;-5.33;88.41;100088.47;5065605;28;20032;-69
2022/12/24 07:08:24;;;;;;;0.70;0.70;;;;;;;-5.39;88.63;100086.53;5065221;28;20025;-68
2022/12/24 07:10:51;;;;;;;0.70;0.70;;;;;;;-5.38;88.43;100084.84;5065348;28;20480;-69
2022/12/24 07:13:17;;;;;;;0.70;0.70;;;;;;;-5.40;88.51;100086.44;5065081;28;20055;-69
2022/12/24 07:15:43;;;;;;;0.70;0.70;;;;;;;-5.40;88.61;100091.50;5064275;28;20029;-70
2022/12/24 07:18:08;;;;;;;0.60;0.60;;;;;;;-5.45;88.61;100087.88;5065129;28;20038;-69
2022/12/24 07:20:34;;;;;;;0.70;0.70;;;;;;;-5.46;88.45;100099.63;5065232;28;20017;-70
2022/12/24 07:23:00;;;;;;;0.70;0.70;;;;;;;-5.48;88.36;100107.16;5064960;28;20088;-69
2022/12/24 07:25:25;;;;;;;0.60;0.60;;;;;;;-5.48;88.27;100102.09;5065326;28;20017;-69
2022/12/24 07:27:50;;;;;;;0.70;0.70;;;;;;;-5.45;88.14;100101.41;5065095;28;20449;-70
2022/12/24 07:30:16;;;;;;;0.70;0.70;;;;;;;-5.41;87.82;100103.28;5065257;28;20040;-69
2022/12/24 07:32:41;;;;;;;0.70;0.70;;;;;;;-5.44;87.68;100102.25;5063887;28;20027;-70
2022/12/24 07:35:07;;;;;;;0.60;0.60;;;;;;;-5.55;88.05;100111.81;5065128;28;20067;-69
2022/12/24 07:37:33;;;;;;;0.65;0.65;;;;;;;-5.52;88.01;100101.84;5064974;28;20107;-69
2022/12/24 07:39:58;;;;;;;0.70;0.70;;;;;;;-5.54;87.89;100105.97;5065197;28;20025;-69
2022/12/24 07:42:24;;;;;;;0.70;0.70;;;;;;;-5.53;88.25;100111.13;5065999;28;20066;-69
2022/12/24 07:44:50;;;;;;;0.60;0.60;;;;;;;-5.51;88.46;100117.09;5069355;28;20048;-68
2022/12/24 07:47:15;;;;;;;0.70;0.70;;;;;;;-5.46;88.10;100119.88;5069114;28;20052;-68
2022/12/24 07:49:41;;;;;;;0.70;0.70;;;;;;;-5.53;88.21;100108.59;5069578;28;20039;-69
2022/12/24 07:52:06;;;;;;;0.60;0.60;;;;;;;-5.51;88.45;100117.09;5068967;28;20546;-70
2022/12/24 07:54:31;;;;;;;0.70;0.70;;;;;;;-5.51;88.64;100114.56;5069322;28;20029;-69
2022/12/24 07:56:57;;;;;;;0.70;0.70;;;;;;;-5.40;88.89;100124.41;5068952;28;20033;-68
2022/12/24 07:59:22;;;;;;;0.70;0.70;;;;;;;-5.35;88.85;100128.00;5069073;28;20025;-69
2022/12/24 08:01:48;;;;;;;0.70;0.70;;;;;;;-5.35;88.81;100122.94;5068988;28;20101;-69
2022/12/24 08:04:13;;;;;;;0.63;0.63;;;;;;;-5.26;88.76;100133.56;5068887;28;20027;-68
2022/12/24 08:06:39;;;;;;;0.70;0.70;;;;;;;-5.25;88.51;100129.38;5067470;28;20043;-69
2022/12/24 08:09:04;;;;;;;0.77;0.77;;;;;;;-5.22;88.64;100134.59;5068905;28;20038;-69
2022/12/24 08:11:29;;;;;;;0.70;0.70;;;;;;;-5.16;88.92;100129.84;5068560;28;20079;-68
2022/12/24 08:13:55;;;;;;;0.70;0.70;;;;;;;-5.04;88.70;100139.72;5068905;28;20063;-69
2022/12/24 08:16:20;;;;;;;0.70;0.70;;;;;;;-4.98;88.43;100146.75;5068751;28;20029;-69
2022/12/24 08:18:46;;;;;;;0.70;0.70;;;;;;;-4.97;88.25;100140.91;5068584;28;20017;-69
2022/12/24 08:21:11;;;;;;;0.70;0.70;;;;;;;-5.05;87.64;100140.53;5068706;28;20067;-68
2022/12/24 08:23:37;;;;;;;0.70;0.70;;;;;;;-5.04;87.62;100146.44;5068535;28;20107;-70
2022/12/24 08:26:06;;;;;;;0.70;0.70;;;;;;;-5.08;87.76;100150.50;5068750;28;20113;-69
2022/12/24 08:28:32;;;;;;;0.60;0.60;;;;;;;-5.07;87.84;100154.75;5068532;28;20155;-69
2022/12/24 08:30:58;;;;;;;0.70;0.70;;;;;;;-5.10;88.02;100144.47;5068542;28;20538;-69
2022/12/24 08:33:23;;;;;;;0.70;0.70;;;;;;;-5.06;88.35;100146.38;5068528;28;20029;-70
2022/12/24 08:35:51;;;;;;;0.77;0.77;;;;;;;-5.00;88.42;100149.19;5068459;28;20384;-70
2022/12/24 08:38:17;;;;;;;0.70;0.70;;;;;;;-4.93;88.76;100147.84;5066900;28;20020;-70
2022/12/24 08:40:46;;;;;;;0.75;0.75;;;;;;;-5.00;88.69;100140.75;5068244;28;20051;-69
2022/12/24 08:43:11;;;;;;;0.70;0.70;;;;;;;-4.83;88.71;100164.38;5066759;28;20067;-69
2022/12/24 08:45:38;;;;;;;0.70;0.70;;;;;;;-4.73;88.23;100171.63;5068317;28;20028;-69
2022/12/24 08:48:04;;;;;;;0.70;0.70;;;;;;;-4.66;87.92;100174.47;5067806;28;20052;-70
2022/12/24 08:50:29;;;;;;;0.70;0.70;;;;;;;-4.70;87.90;100172.59;5067922;28;20409;-69
2022/12/24 08:52:55;;;;;;;9.07;8.38;;;;;;;-4.59;87.83;100176.53;5067254;28;20017;-69
2022/12/24 08:55:20;;;;;;;0.60;0.60;;;;;;;-4.55;87.71;100186.03;5067866;28;20108;-69
2022/12/24 08:57:46;;;;;;;0.60;0.60;;;;;;;-4.46;88.00;100172.94;5068035;28;20028;-69
2022/12/24 09:00:13;;;;;;;0.60;0.60;;;;;;;-4.16;88.40;100181.94;5067808;28;20032;-69
2022/12/24 09:02:38;;;;;;;0.60;0.60;;;;;;;-3.77;87.90;100189.69;5066347;28;20031;-71
2022/12/24 09:05:04;;;;;;;0.60;0.60;;;;;;;-3.41;87.26;100188.78;5067957;28;20089;-70
2022/12/24 09:07:29;;;;;;;0.65;0.65;;;;;;;-3.07;86.05;100189.41;5067640;28;20025;-70
2022/12/24 09:09:55;;;;;;;0.60;0.60;;;;;;;-2.75;84.43;100194.13;5067640;28;20093;-70
2022/12/24 09:12:20;;;;;;;0.50;0.50;;;;;;;-2.62;83.15;100196.34;5067616;28;20035;-70
2022/12/24 09:14:45;;;;;;;0.50;0.50;;;;;;;-2.63;82.69;100196.28;5066060;28;20088;-70
2022/12/24 09:17:11;;;;;;;0.60;0.60;;;;;;;-2.70;82.23;100195.16;5067622;28;20025;-70
2022/12/24 09:19:36;;;;;;;0.60;0.60;;;;;;;-2.82;82.06;100198.06;5067357;28;20036;-70
2022/12/24 09:22:02;;;;;;;0.60;0.60;;;;;;;-2.90;82.01;100201.94;5067049;28;20511;-70
2022/12/24 09:24:28;;;;;;;0.60;0.60;;;;;;;-3.11;82.64;100182.44;5067311;28;20198;-69
2022/12/24 09:26:53;;;;;;;0.60;0.60;;;;;;;-3.07;82.72;100203.75;5066994;28;20025;-69
2022/12/24 09:29:18;;;;;;;0.60;0.60;;;;;;;-3.11;82.57;100207.81;5067201;28;20108;-68
2022/12/24 09:31:44;;;;;;;0.70;0.70;;;;;;;-3.18;82.66;100211.75;5067327;28;20024;-70
2022/12/24 09:34:09;;;;;;;0.50;0.50;;;;;;;-3.28;82.93;100223.19;5067221;28;20092;-69
2022/12/24 09:36:35;;;;;;;0.65;0.65;;;;;;;-3.41;83.35;100223.44;5065682;28;20104;-70
2022/12/24 09:39:00;;;;;;;0.60;0.60;;;;;;;-3.47;83.75;100223.16;5067110;28;20025;-69
2022/12/24 09:41:57;;;;;;;0.60;0.60;;;;;;;-3.51;84.05;100240.78;5066993;28;20021;-69
2022/12/24 09:44:44;;;;;;;0.60;0.60;;;;;;;-3.50;84.40;100239.13;5066947;28;20032;-70
2022/12/24 09:47:27;;;;;;;0.60;0.60;;;;;;;-3.51;84.05;100244.97;5065306;28;20257;-68
2022/12/24 09:49:55;;;;;;;0.60;0.60;;;;;;;-3.50;84.19;100239.97;5066879;28;20029;-69
2022/12/24 09:52:34;;;;;;;0.60;0.60;;;;;;;-3.54;83.71;100235.56;5066353;28;20024;-70
2022/12/24 09:55:22;;;;;;;0.60;0.60;;;;;;;-3.55;83.37;100238.91;5066684;28;20025;-71
2022/12/24 09:57:51;;;;;;;0.60;0.60;;;;;;;-3.65;83.08;100244.34;5064866;28;20021;-69
2022/12/24 10:00:27;;;;;;;0.50;0.50;;;;;;;-3.75;83.35;100243.91;5066628;28;20369;-69
2022/12/24 10:02:53;;;;;;;2.00;1.90;;;;;;;-3.78;83.37;100241.22;5066537;28;20100;-70
2022/12/24 10:05:40;;;;;;;0.60;0.60;;;;;;;-3.83;83.24;100242.69;5065822;28;20425;-69
2022/12/24 10:08:27;;;;;;;1.00;1.00;;;;;;;-3.87;83.14;100243.34;5064761;28;20028;-65
2022/12/24 10:10:59;;;;;;;0.70;0.70;;;;;;;-3.95;83.52;100244.63;5066113;28;20025;-67
2022/12/24 10:13:36;;;;;;;0.80;0.80;;;;;;;-3.94;83.98;100256.50;5066183;28;20160;-68
2022/12/24 10:16:22;;;;;;;0.88;0.88;;;;;;;-3.96;84.19;100258.97;5065091;28;20099;-66
2022/12/24 10:19:01;;;;;;;0.60;0.60;;;;;;;-4.01;84.37;100258.75;5066250;28;20067;-66
2022/12/24 10:21:46;;;;;;;0.60;0.60;;;;;;;-3.98;84.67;100261.44;5064830;28;20104;-66
2022/12/24 10:24:21;;;;;;;0.60;0.60;;;;;;;-4.07;84.55;100258.44;5066102;28;20025;-65
2022/12/24 10:26:53;;;;;;;0.60;0.60;;;;;;;-4.03;84.44;100267.09;5064841;28;20028;-66
2022/12/24 10:29:33;;;;;;;3.28;1.95;;;;;;;-4.12;84.71;100257.38;5066001;28;20029;-65
2022/12/24 10:32:08;;;;;;;1.10;1.10;;;;;;;-4.14;85.24;100269.09;5065929;28;20036;-66
2022/12/24 10:34:48;;;;;;;0.70;0.70;;;;;;;-4.07;85.03;100261.00;5065904;28;20028;-66
2022/12/24 10:37:16;;;;;;;0.68;0.68;;;;;;;-4.11;85.42;100265.06;5065663;28;20073;-62
2022/12/24 10:39:42;;;;;;;0.60;0.60;;;;;;;-4.07;86.12;100252.53;5065744;28;20029;-66
2022/12/24 10:42:09;;;;;;;0.60;0.60;;;;;;;-3.91;86.46;100254.13;5065828;28;20028;-66
2022/12/24 10:44:35;;;;;;;0.70;0.70;;;;;;;-3.78;86.19;100263.19;5065630;28;20025;-66
2022/12/24 10:47:00;;;;;;;0.70;0.70;;;;;;;-3.81;85.87;100253.78;5065524;28;20028;-66
2022/12/24 10:49:46;;;;;;;0.60;0.60;;;;;;;-3.79;86.03;100261.47;5065482;28;20021;-68
2022/12/24 10:52:16;;;;;;;0.60;0.60;;;;;;;-3.83;86.09;100252.81;5065478;28;20024;-66
2022/12/24 10:55:07;;;;;;;0.68;0.68;;;;;;;-3.76;86.10;100257.41;5065696;28;20053;-67
2022/12/24 10:57:32;;;;;;;0.60;0.60;;;;;;;-3.76;85.71;100256.53;5065261;28;20024;-67
2022/12/24 10:59:59;;;;;;;0.60;0.60;;;;;;;-3.79;85.60;100256.38;5065440;28;20237;-68
2022/12/24 11:02:34;;;;;;;0.60;0.60;;;;;;;-3.76;85.79;100262.47;5065261;28;20036;-66
2022/12/24 11:05:02;;;;;;;0.60;0.60;;;;;;;-3.67;85.13;100271.31;5065425;28;20040;-66
2022/12/24 11:07:29;;;;;;;0.60;0.60;;;;;;;-3.76;85.28;100267.56;5065130;28;20028;-66
2022/12/24 11:10:01;;;;;;;0.57;0.57;;;;;;;-3.77;85.33;100270.88;5063866;28;20021;-66
2022/12/24 11:12:33;;;;;;;0.80;0.80;;;;;;;-3.79;85.36;100267.41;5065372;28;20106;-66
2022/12/24 11:15:03;;;;;;;0.50;0.50;;;;;;;-3.75;85.59;100276.91;5064813;28;20037;-66
2022/12/24 11:17:29;;;;;;;0.60;0.60;;;;;;;-3.69;85.79;100281.38;5064898;28;20032;-66
2022/12/24 11:19:55;;;;;;;0.70;0.70;;;;;;;-3.59;85.82;100282.69;5065435;28;20032;-65
2022/12/24 11:22:29;;;;;;;0.50;0.50;;;;;;;-3.50;85.72;100278.03;5064892;28;20029;-66
2022/12/24 11:25:00;;;;;;;0.60;0.60;;;;;;;-3.42;85.16;100268.25;5065270;28;20465;-66
2022/12/24 11:27:33;;;;;;;0.68;0.68;;;;;;;-3.34;85.16;100280.44;5065083;28;20051;-65
2022/12/24 11:30:14;;;;;;;0.60;0.60;;;;;;;-3.24;84.83;100286.00;5064979;28;20484;-66
2022/12/24 11:32:44;;;;;;;0.70;0.70;;;;;;;-3.19;84.69;100283.69;5065057;28;20060;-66
2022/12/24 11:35:17;;;;;;;0.50;0.50;;;;;;;-3.17;84.19;100282.09;5065101;28;20032;-66
2022/12/24 11:37:42;;;;;;;0.60;0.60;;;;;;;-3.11;84.32;100279.81;5063342;28;20028;-65
2022/12/24 11:40:20;;;;;;;0.60;0.60;;;;;;;-2.85;84.43;100289.41;5065067;28;20029;-66
2022/12/24 11:42:46;;;;;;;0.60;0.60;;;;;;;-2.52;83.11;100278.97;5064897;28;20029;-64